Pagina principale
METAR-TAF:

METAR-TAF

Aeroporti :

Cerklje ob Krki, Slovenia

latitudine: 45-53-59N, longitudine: 15-30-55E, altezza: 157 m

Osservazione

Il bollettino è stato emesso 42 minuti fa, alle 07:30 UTC
Vento 3 kt da ovest, variando fra sud-ovest e nord/nord-ovest
Temperature 21°C
Umidità 49%
Pressione 1021 hPa
Visibilità 10 km o più
nessuna nube inferiore a 1500 m e nessun cumulonembo

METAR: LJCE 270730Z 28003KT 220V340 CAVOK 21/10 Q1021 RMK BLU

Ora: 10:12 (08:12 UTC)

Previsione

Il bollettino è stato emesso 3 ore e 12 minuti fa, alle 05:00 UTC
Previsione valida dal 27 alle 06 UTC al 27 alle 15 UTC
Vento 2 kt da direzioni variabili
Visibilità 10 km o più
nessuna nube inferiore a 1500 m e nessun cumulonembo
Evoluzione graduale
dal 27 alle 07 UTC al 27 alle 09 UTC
Vento 5 kt da est
Poco nuvoloso ad un'altezza di 5000 ft

TAF: LJCE 270500Z 2706/2715 VRB02KT CAVOK BECMG 2707/2709 09005KT FEW050

Osservazioni e previsioni meteorologiche di più di 4000 aeroporti (messaggi METAR e TAF).

Le stazioni disponibili sono rappresentate dai dischi gialli e rossi sulla carta.

Puntare il mouse per vedere il nome della stazione.

Clicca sopra per visualizzare le osservazioni e previsioni meteorologiche.

Per cambiare la mappa : fare clic sui pulsanti verdi con una croce nera per ingrandire, il pulsante verde con un trattino per diminuire, o sulla freccia verde per le mappe adiacenti.


METAR-TAF: